sensor_id;sensor_type;location;lat;lon;timestamp;pressure;altitude;pressure_sealevel;temperature;humidity
46710;BME280;32442;51.514;-0.178;2023-03-29T00:02:02;101105.81;;;22.25;41.96
46710;BME280;32442;51.514;-0.178;2023-03-29T00:04:29;101092.88;;;22.24;41.42
46710;BME280;32442;51.514;-0.178;2023-03-29T00:06:56;101096.53;;;22.24;41.61
46710;BME280;32442;51.514;-0.178;2023-03-29T00:09:23;101093.50;;;22.21;41.75
46710;BME280;32442;51.514;-0.178;2023-03-29T00:11:52;101085.38;;;22.19;41.64
46710;BME280;32442;51.514;-0.178;2023-03-29T00:14:19;101087.66;;;22.17;41.69
46710;BME280;32442;51.514;-0.178;2023-03-29T00:16:45;101097.28;;;22.16;41.67
46710;BME280;32442;51.514;-0.178;2023-03-29T00:19:12;101099.56;;;22.14;41.83
46710;BME280;32442;51.514;-0.178;2023-03-29T00:21:39;101093.44;;;22.12;41.84
46710;BME280;32442;51.514;-0.178;2023-03-29T00:24:06;101093.72;;;22.10;41.81
46710;BME280;32442;51.514;-0.178;2023-03-29T00:26:33;101089.56;;;22.08;41.97
46710;BME280;32442;51.514;-0.178;2023-03-29T00:29:02;101091.03;;;22.05;42.22
46710;BME280;32442;51.514;-0.178;2023-03-29T00:31:29;101091.03;;;22.05;41.83
46710;BME280;32442;51.514;-0.178;2023-03-29T00:33:57;101089.69;;;22.03;41.98
46710;BME280;32442;51.514;-0.178;2023-03-29T00:36:24;101091.13;;;22.00;42.31
46710;BME280;32442;51.514;-0.178;2023-03-29T00:38:50;101093.44;;;21.98;42.56
46710;BME280;32442;51.514;-0.178;2023-03-29T00:41:17;101084.47;;;21.96;42.62
46710;BME280;32442;51.514;-0.178;2023-03-29T00:43:51;101084.78;;;21.95;42.36
46710;BME280;32442;51.514;-0.178;2023-03-29T00:46:18;101084.28;;;21.93;42.73
46710;BME280;32442;51.514;-0.178;2023-03-29T00:48:45;101093.31;;;21.90;42.54
46710;BME280;32442;51.514;-0.178;2023-03-29T00:51:12;101100.09;;;21.89;42.31
46710;BME280;32442;51.514;-0.178;2023-03-29T00:53:50;101088.63;;;21.85;42.43
46710;BME280;32442;51.514;-0.178;2023-03-29T00:56:28;101082.19;;;21.85;42.30
46710;BME280;32442;51.514;-0.178;2023-03-29T01:01:49;101072.69;;;21.81;42.88
46710;BME280;32442;51.514;-0.178;2023-03-29T01:04:24;101076.66;;;21.80;42.66
46710;BME280;32442;51.514;-0.178;2023-03-29T01:09:58;101063.53;;;21.75;42.42
46710;BME280;32442;51.514;-0.178;2023-03-29T01:12:28;101061.34;;;21.72;42.67
46710;BME280;32442;51.514;-0.178;2023-03-29T01:14:58;101066.97;;;21.72;42.62
46710;BME280;32442;51.514;-0.178;2023-03-29T01:17:27;101064.78;;;21.69;42.86
46710;BME280;32442;51.514;-0.178;2023-03-29T01:20:02;101065.63;;;21.69;42.94
46710;BME280;32442;51.514;-0.178;2023-03-29T01:28:07;101051.78;;;21.59;42.94
46710;BME280;32442;51.514;-0.178;2023-03-29T01:30:37;101063.03;;;21.59;43.04
46710;BME280;32442;51.514;-0.178;2023-03-29T01:33:09;101064.78;;;21.55;42.90
46710;BME280;32442;51.514;-0.178;2023-03-29T01:35:45;101054.69;;;21.54;43.06
46710;BME280;32442;51.514;-0.178;2023-03-29T01:38:16;101058.13;;;21.51;43.32
46710;BME280;32442;51.514;-0.178;2023-03-29T01:40:46;101051.97;;;21.49;43.12
46710;BME280;32442;51.514;-0.178;2023-03-29T01:45:49;101032.72;;;21.43;43.35
46710;BME280;32442;51.514;-0.178;2023-03-29T01:48:27;101035.84;;;21.41;43.42
46710;BME280;32442;51.514;-0.178;2023-03-29T01:53:27;101031.16;;;21.37;43.24
46710;BME280;32442;51.514;-0.178;2023-03-29T01:55:56;101027.84;;;21.35;43.51
46710;BME280;32442;51.514;-0.178;2023-03-29T01:58:25;101027.31;;;21.33;43.49
46710;BME280;32442;51.514;-0.178;2023-03-29T02:00:53;101023.16;;;21.30;43.34
46710;BME280;32442;51.514;-0.178;2023-03-29T02:03:22;101015.88;;;21.29;43.24
46710;BME280;32442;51.514;-0.178;2023-03-29T02:05:51;101008.03;;;21.26;43.74
46710;BME280;32442;51.514;-0.178;2023-03-29T02:08:19;101000.25;;;21.23;43.46
46710;BME280;32442;51.514;-0.178;2023-03-29T02:10:48;101000.78;;;21.25;43.39
46710;BME280;32442;51.514;-0.178;2023-03-29T02:13:15;101004.19;;;21.22;43.84
46710;BME280;32442;51.514;-0.178;2023-03-29T02:15:46;101004.53;;;21.20;43.41
46710;BME280;32442;51.514;-0.178;2023-03-29T02:18:14;101005.47;;;21.16;43.70
46710;BME280;32442;51.514;-0.178;2023-03-29T02:20:42;101007.72;;;21.14;43.77
46710;BME280;32442;51.514;-0.178;2023-03-29T02:23:14;101019.25;;;21.12;43.92
46710;BME280;32442;51.514;-0.178;2023-03-29T02:25:44;101027.16;;;21.10;43.65
46710;BME280;32442;51.514;-0.178;2023-03-29T02:28:11;101034.75;;;21.10;43.66
46710;BME280;32442;51.514;-0.178;2023-03-29T02:30:55;101030.91;;;21.06;43.91
46710;BME280;32442;51.514;-0.178;2023-03-29T02:33:26;101034.53;;;21.06;43.78
46710;BME280;32442;51.514;-0.178;2023-03-29T02:36:16;101032.88;;;21.05;44.06
46710;BME280;32442;51.514;-0.178;2023-03-29T02:38:45;101016.66;;;21.02;43.64
46710;BME280;32442;51.514;-0.178;2023-03-29T02:41:11;101006.84;;;21.00;44.08
46710;BME280;32442;51.514;-0.178;2023-03-29T02:43:39;101000.09;;;21.01;43.97
46710;BME280;32442;51.514;-0.178;2023-03-29T02:46:06;101000.72;;;20.98;44.19
46710;BME280;32442;51.514;-0.178;2023-03-29T02:48:34;101004.97;;;20.95;43.87
46710;BME280;32442;51.514;-0.178;2023-03-29T02:51:04;101007.56;;;20.92;44.15
46710;BME280;32442;51.514;-0.178;2023-03-29T02:53:38;101001.13;;;20.91;44.39
46710;BME280;32442;51.514;-0.178;2023-03-29T02:56:06;100999.44;;;20.90;44.38
46710;BME280;32442;51.514;-0.178;2023-03-29T02:58:33;101001.53;;;20.84;44.24
46710;BME280;32442;51.514;-0.178;2023-03-29T03:01:02;100993.00;;;20.90;44.36
46710;BME280;32442;51.514;-0.178;2023-03-29T03:03:32;101005.69;;;20.87;44.07
46710;BME280;32442;51.514;-0.178;2023-03-29T03:05:59;101005.78;;;20.82;44.51
46710;BME280;32442;51.514;-0.178;2023-03-29T03:08:27;101005.47;;;20.83;44.58
46710;BME280;32442;51.514;-0.178;2023-03-29T03:10:54;100999.66;;;20.80;44.57
46710;BME280;32442;51.514;-0.178;2023-03-29T03:13:20;100999.31;;;20.81;44.56
46710;BME280;32442;51.514;-0.178;2023-03-29T03:15:47;101014.84;;;20.79;44.21
46710;BME280;32442;51.514;-0.178;2023-03-29T03:18:14;101007.53;;;20.78;44.35
46710;BME280;32442;51.514;-0.178;2023-03-29T03:20:42;100999.13;;;20.78;44.35
46710;BME280;32442;51.514;-0.178;2023-03-29T03:23:12;100986.00;;;20.73;44.68
46710;BME280;32442;51.514;-0.178;2023-03-29T03:25:39;100986.09;;;20.68;44.71
46710;BME280;32442;51.514;-0.178;2023-03-29T03:28:05;100993.19;;;20.66;44.56
46710;BME280;32442;51.514;-0.178;2023-03-29T03:30:33;100993.47;;;20.64;44.74
46710;BME280;32442;51.514;-0.178;2023-03-29T03:33:00;100990.03;;;20.67;44.51
46710;BME280;32442;51.514;-0.178;2023-03-29T03:35:27;100984.13;;;20.69;44.83
46710;BME280;32442;51.514;-0.178;2023-03-29T03:37:54;100977.16;;;20.66;44.46
46710;BME280;32442;51.514;-0.178;2023-03-29T03:40:20;100975.78;;;20.64;44.56
46710;BME280;32442;51.514;-0.178;2023-03-29T03:42:48;100976.63;;;20.64;44.72
46710;BME280;32442;51.514;-0.178;2023-03-29T03:45:14;100971.63;;;20.61;44.80
46710;BME280;32442;51.514;-0.178;2023-03-29T03:47:42;100959.13;;;20.54;45.16
46710;BME280;32442;51.514;-0.178;2023-03-29T03:50:09;100961.13;;;20.53;45.01
46710;BME280;32442;51.514;-0.178;2023-03-29T03:52:37;100968.38;;;20.54;45.04
46710;BME280;32442;51.514;-0.178;2023-03-29T03:55:04;100965.56;;;20.54;44.96
46710;BME280;32442;51.514;-0.178;2023-03-29T03:57:30;100961.72;;;20.50;44.96
46710;BME280;32442;51.514;-0.178;2023-03-29T03:59:58;100961.50;;;20.47;44.83
46710;BME280;32442;51.514;-0.178;2023-03-29T04:02:25;100967.41;;;20.45;44.91
46710;BME280;32442;51.514;-0.178;2023-03-29T04:04:53;100970.84;;;20.42;45.39
46710;BME280;32442;51.514;-0.178;2023-03-29T04:07:20;100979.56;;;20.40;45.40
46710;BME280;32442;51.514;-0.178;2023-03-29T04:09:47;100975.41;;;20.38;45.14
46710;BME280;32442;51.514;-0.178;2023-03-29T04:12:14;100970.09;;;20.36;45.30
46710;BME280;32442;51.514;-0.178;2023-03-29T04:14:41;100963.16;;;20.34;45.64
46710;BME280;32442;51.514;-0.178;2023-03-29T04:17:08;100968.22;;;20.32;45.33
46710;BME280;32442;51.514;-0.178;2023-03-29T04:19:34;100962.81;;;20.35;45.44
46710;BME280;32442;51.514;-0.178;2023-03-29T04:22:01;100962.09;;;20.30;45.34
46710;BME280;32442;51.514;-0.178;2023-03-29T04:24:33;100959.28;;;20.30;45.51
46710;BME280;32442;51.514;-0.178;2023-03-29T04:27:00;100960.94;;;20.31;45.55
46710;BME280;32442;51.514;-0.178;2023-03-29T04:29:27;100946.91;;;20.31;45.62
46710;BME280;32442;51.514;-0.178;2023-03-29T04:31:53;100948.34;;;20.28;45.43
46710;BME280;32442;51.514;-0.178;2023-03-29T04:34:22;100947.28;;;20.24;45.74
46710;BME280;32442;51.514;-0.178;2023-03-29T04:36:48;100940.53;;;20.25;45.76
46710;BME280;32442;51.514;-0.178;2023-03-29T04:39:18;100947.91;;;20.21;45.62
46710;BME280;32442;51.514;-0.178;2023-03-29T04:41:45;100941.75;;;20.19;45.79
46710;BME280;32442;51.514;-0.178;2023-03-29T04:44:12;100941.53;;;20.16;45.66
46710;BME280;32442;51.514;-0.178;2023-03-29T04:46:39;100936.16;;;20.19;46.01
46710;BME280;32442;51.514;-0.178;2023-03-29T04:49:06;100938.03;;;20.24;45.67
46710;BME280;32442;51.514;-0.178;2023-03-29T04:51:33;100936.16;;;20.19;46.08
46710;BME280;32442;51.514;-0.178;2023-03-29T04:54:00;100941.22;;;20.17;45.74
46710;BME280;32442;51.514;-0.178;2023-03-29T04:56:26;100935.59;;;20.17;45.96
46710;BME280;32442;51.514;-0.178;2023-03-29T04:58:53;100939.25;;;20.18;45.95
46710;BME280;32442;51.514;-0.178;2023-03-29T05:01:20;100943.81;;;20.14;45.76
46710;BME280;32442;51.514;-0.178;2023-03-29T05:03:47;100948.38;;;20.10;45.94
46710;BME280;32442;51.514;-0.178;2023-03-29T05:06:13;100954.81;;;20.10;45.96
46710;BME280;32442;51.514;-0.178;2023-03-29T05:08:40;100946.41;;;20.10;45.82
46710;BME280;32442;51.514;-0.178;2023-03-29T05:11:08;100941.06;;;20.09;45.90
46710;BME280;32442;51.514;-0.178;2023-03-29T05:13:35;100927.59;;;20.11;46.09
46710;BME280;32442;51.514;-0.178;2023-03-29T05:16:03;100936.53;;;20.13;45.86
46710;BME280;32442;51.514;-0.178;2023-03-29T05:18:30;100934.03;;;20.11;46.21
46710;BME280;32442;51.514;-0.178;2023-03-29T05:20:57;100943.38;;;20.07;45.94
46710;BME280;32442;51.514;-0.178;2023-03-29T05:23:25;100937.69;;;20.12;46.08
46710;BME280;32442;51.514;-0.178;2023-03-29T05:25:52;100949.50;;;20.09;45.84
46710;BME280;32442;51.514;-0.178;2023-03-29T05:28:19;100943.66;;;20.05;46.08
46710;BME280;32442;51.514;-0.178;2023-03-29T05:30:46;100932.06;;;20.12;45.81
46710;BME280;32442;51.514;-0.178;2023-03-29T05:33:13;100924.03;;;20.05;46.26
46710;BME280;32442;51.514;-0.178;2023-03-29T05:35:40;100936.94;;;20.06;46.25
46710;BME280;32442;51.514;-0.178;2023-03-29T05:38:07;100946.25;;;20.02;46.22
46710;BME280;32442;51.514;-0.178;2023-03-29T05:40:34;100953.47;;;20.08;46.11
46710;BME280;32442;51.514;-0.178;2023-03-29T05:43:01;100934.97;;;20.07;46.55
46710;BME280;32442;51.514;-0.178;2023-03-29T05:45:28;100938.53;;;20.12;46.22
46710;BME280;32442;51.514;-0.178;2023-03-29T05:47:55;100937.59;;;20.17;46.25
46710;BME280;32442;51.514;-0.178;2023-03-29T05:50:23;100936.16;;;20.19;46.57
46710;BME280;32442;51.514;-0.178;2023-03-29T05:52:50;100936.34;;;20.23;46.46
46710;BME280;32442;51.514;-0.178;2023-03-29T05:55:17;100927.34;;;20.26;46.52
46710;BME280;32442;51.514;-0.178;2023-03-29T05:57:44;100943.84;;;20.27;46.89
46710;BME280;32442;51.514;-0.178;2023-03-29T06:00:11;100952.50;;;20.31;46.59
46710;BME280;32442;51.514;-0.178;2023-03-29T06:02:45;100936.75;;;20.35;47.02
46710;BME280;32442;51.514;-0.178;2023-03-29T06:05:12;100943.72;;;20.37;47.31
46710;BME280;32442;51.514;-0.178;2023-03-29T06:07:39;100947.88;;;20.40;47.39
46710;BME280;32442;51.514;-0.178;2023-03-29T06:10:06;100940.53;;;20.44;46.91
46710;BME280;32442;51.514;-0.178;2023-03-29T06:12:35;100949.44;;;20.46;47.32
46710;BME280;32442;51.514;-0.178;2023-03-29T06:15:02;100954.13;;;20.51;47.00
46710;BME280;32442;51.514;-0.178;2023-03-29T06:17:30;100944.28;;;20.53;47.04
46710;BME280;32442;51.514;-0.178;2023-03-29T06:19:59;100937.41;;;20.59;46.63
46710;BME280;32442;51.514;-0.178;2023-03-29T06:22:26;100926.94;;;20.65;46.79
46710;BME280;32442;51.514;-0.178;2023-03-29T06:24:53;100927.47;;;20.67;46.33
46710;BME280;32442;51.514;-0.178;2023-03-29T06:27:20;100940.34;;;20.68;46.14
46710;BME280;32442;51.514;-0.178;2023-03-29T06:29:47;100949.00;;;20.71;46.10
46710;BME280;32442;51.514;-0.178;2023-03-29T06:32:14;100944.72;;;20.74;46.08
46710;BME280;32442;51.514;-0.178;2023-03-29T06:34:41;100934.84;;;20.76;45.79
46710;BME280;32442;51.514;-0.178;2023-03-29T06:37:08;100935.38;;;20.78;45.77
46710;BME280;32442;51.514;-0.178;2023-03-29T06:39:35;100934.44;;;20.83;45.52
46710;BME280;32442;51.514;-0.178;2023-03-29T06:42:02;100929.22;;;20.76;45.30
46710;BME280;32442;51.514;-0.178;2023-03-29T06:44:42;100922.91;;;20.84;44.95
46710;BME280;32442;51.514;-0.178;2023-03-29T06:47:12;100914.34;;;20.90;45.09
46710;BME280;32442;51.514;-0.178;2023-03-29T06:49:38;100932.28;;;20.94;44.94
46710;BME280;32442;51.514;-0.178;2023-03-29T06:52:05;100927.69;;;20.98;44.72
46710;BME280;32442;51.514;-0.178;2023-03-29T06:54:38;100910.72;;;21.03;44.76
46710;BME280;32442;51.514;-0.178;2023-03-29T06:57:06;100908.97;;;21.07;44.22
46710;BME280;32442;51.514;-0.178;2023-03-29T06:59:33;100907.19;;;21.11;44.48
46710;BME280;32442;51.514;-0.178;2023-03-29T07:02:00;100906.28;;;21.15;43.97
46710;BME280;32442;51.514;-0.178;2023-03-29T07:04:33;100912.63;;;21.21;44.27
46710;BME280;32442;51.514;-0.178;2023-03-29T07:07:01;100908.03;;;21.25;43.75
46710;BME280;32442;51.514;-0.178;2023-03-29T07:09:29;100909.91;;;21.29;44.09
46710;BME280;32442;51.514;-0.178;2023-03-29T07:11:56;100913.75;;;21.34;44.04
46710;BME280;32442;51.514;-0.178;2023-03-29T07:14:24;100926.84;;;21.38;43.93
46710;BME280;32442;51.514;-0.178;2023-03-29T07:17:04;100923.41;;;21.41;43.59
46710;BME280;32442;51.514;-0.178;2023-03-29T07:19:31;100917.69;;;21.46;43.33
46710;BME280;32442;51.514;-0.178;2023-03-29T07:21:58;100923.00;;;21.48;43.14
46710;BME280;32442;51.514;-0.178;2023-03-29T07:24:30;100929.66;;;21.52;43.44
46710;BME280;32442;51.514;-0.178;2023-03-29T07:27:01;100942.22;;;21.54;43.34
46710;BME280;32442;51.514;-0.178;2023-03-29T07:29:30;100937.44;;;21.55;43.19
46710;BME280;32442;51.514;-0.178;2023-03-29T07:31:57;100939.59;;;21.58;42.97
46710;BME280;32442;51.514;-0.178;2023-03-29T07:34:26;100925.25;;;21.59;43.11
46710;BME280;32442;51.514;-0.178;2023-03-29T07:37:06;100907.72;;;21.62;42.89
46710;BME280;32442;51.514;-0.178;2023-03-29T07:39:34;100925.97;;;21.65;43.28
46710;BME280;32442;51.514;-0.178;2023-03-29T07:42:02;100912.75;;;21.65;42.97
46710;BME280;32442;51.514;-0.178;2023-03-29T07:44:33;100919.19;;;21.66;42.92
46710;BME280;32442;51.514;-0.178;2023-03-29T07:47:07;100907.13;;;21.65;42.66
46710;BME280;32442;51.514;-0.178;2023-03-29T07:49:34;100912.41;;;21.67;42.96
46710;BME280;32442;51.514;-0.178;2023-03-29T07:52:00;100906.78;;;21.67;42.87
46710;BME280;32442;51.514;-0.178;2023-03-29T07:54:36;100902.31;;;21.66;42.85
46710;BME280;32442;51.514;-0.178;2023-03-29T07:57:03;100898.69;;;21.65;42.66
46710;BME280;32442;51.514;-0.178;2023-03-29T07:59:30;100882.94;;;21.64;42.88
46710;BME280;32442;51.514;-0.178;2023-03-29T08:01:57;100867.75;;;21.65;42.38
46710;BME280;32442;51.514;-0.178;2023-03-29T08:04:33;100871.19;;;21.62;42.74
46710;BME280;32442;51.514;-0.178;2023-03-29T08:07:00;100887.25;;;21.62;42.71
46710;BME280;32442;51.514;-0.178;2023-03-29T08:09:27;100889.22;;;21.61;42.76
46710;BME280;32442;51.514;-0.178;2023-03-29T08:11:54;100874.63;;;21.59;42.48
46710;BME280;32442;51.514;-0.178;2023-03-29T08:14:20;100876.59;;;21.59;42.33
46710;BME280;32442;51.514;-0.178;2023-03-29T08:16:49;100876.59;;;21.59;42.67
46710;BME280;32442;51.514;-0.178;2023-03-29T08:19:17;100879.41;;;21.59;42.74
46710;BME280;32442;51.514;-0.178;2023-03-29T08:21:43;100878.41;;;21.55;42.60
46710;BME280;32442;51.514;-0.178;2023-03-29T08:24:10;100869.13;;;21.54;42.77
46710;BME280;32442;51.514;-0.178;2023-03-29T08:26:38;100870.28;;;21.53;42.68
46710;BME280;32442;51.514;-0.178;2023-03-29T08:29:05;100870.91;;;21.50;42.47
46710;BME280;32442;51.514;-0.178;2023-03-29T08:31:33;100865.28;;;21.50;42.29
46710;BME280;32442;51.514;-0.178;2023-03-29T08:34:01;100867.59;;;21.48;42.67
46710;BME280;32442;51.514;-0.178;2023-03-29T08:36:28;100868.22;;;21.45;42.71
46710;BME280;32442;51.514;-0.178;2023-03-29T08:38:55;100885.41;;;21.44;42.72
46710;BME280;32442;51.514;-0.178;2023-03-29T08:41:35;100885.19;;;21.40;42.81
46710;BME280;32442;51.514;-0.178;2023-03-29T08:47:00;100853.25;;;21.36;43.00
46710;BME280;32442;51.514;-0.178;2023-03-29T08:49:32;100845.47;;;21.33;42.87
46710;BME280;32442;51.514;-0.178;2023-03-29T08:52:01;100834.03;;;21.29;43.14
46710;BME280;32442;51.514;-0.178;2023-03-29T08:54:37;100849.22;;;21.28;43.04
46710;BME280;32442;51.514;-0.178;2023-03-29T08:57:11;100850.38;;;21.27;43.06
46710;BME280;32442;51.514;-0.178;2023-03-29T08:59:43;100844.84;;;21.22;42.94
46710;BME280;32442;51.514;-0.178;2023-03-29T09:02:16;100842.03;;;21.22;42.99
46710;BME280;32442;51.514;-0.178;2023-03-29T09:04:57;100832.28;;;21.20;43.28
46710;BME280;32442;51.514;-0.178;2023-03-29T09:07:41;100823.31;;;21.18;43.28
46710;BME280;32442;51.514;-0.178;2023-03-29T09:10:11;100815.53;;;21.15;43.78
46710;BME280;32442;51.514;-0.178;2023-03-29T09:20:23;100806.47;;;21.04;43.71
46710;BME280;32442;51.514;-0.178;2023-03-29T09:22:59;100819.19;;;21.02;43.97
46710;BME280;32442;51.514;-0.178;2023-03-29T09:25:41;100813.03;;;21.00;44.13
46710;BME280;32442;51.514;-0.178;2023-03-29T09:31:14;100796.28;;;20.95;44.08
46710;BME280;32442;51.514;-0.178;2023-03-29T09:33:48;100791.31;;;20.92;44.02
46710;BME280;32442;51.514;-0.178;2023-03-29T09:38:54;100790.59;;;20.86;44.07
46710;BME280;32442;51.514;-0.178;2023-03-29T09:41:26;100787.59;;;20.82;44.31
46710;BME280;32442;51.514;-0.178;2023-03-29T09:43:55;100779.69;;;20.84;44.21
46710;BME280;32442;51.514;-0.178;2023-03-29T09:46:28;100788.41;;;20.83;44.48
46710;BME280;32442;51.514;-0.178;2023-03-29T09:48:56;100785.41;;;20.79;44.42
46710;BME280;32442;51.514;-0.178;2023-03-29T09:51:24;100780.09;;;20.78;44.27
46710;BME280;32442;51.514;-0.178;2023-03-29T09:53:55;100784.03;;;20.77;44.52
46710;BME280;32442;51.514;-0.178;2023-03-29T09:56:22;100773.94;;;20.76;44.38
46710;BME280;32442;51.514;-0.178;2023-03-29T09:58:49;100767.84;;;20.74;44.34
46710;BME280;32442;51.514;-0.178;2023-03-29T10:01:16;100761.69;;;20.72;44.29
46710;BME280;32442;51.514;-0.178;2023-03-29T10:03:49;100752.47;;;20.71;44.63
46710;BME280;32442;51.514;-0.178;2023-03-29T10:06:17;100741.66;;;20.65;45.10
46710;BME280;32442;51.514;-0.178;2023-03-29T10:08:54;100740.50;;;20.66;45.18
46710;BME280;32442;51.514;-0.178;2023-03-29T10:11:33;100746.13;;;20.66;45.08
46710;BME280;32442;51.514;-0.178;2023-03-29T10:14:10;100741.25;;;20.58;44.98
46710;BME280;32442;51.514;-0.178;2023-03-29T10:16:41;100740.91;;;20.59;45.09
46710;BME280;32442;51.514;-0.178;2023-03-29T10:19:16;100739.25;;;20.58;44.98
46710;BME280;32442;51.514;-0.178;2023-03-29T10:21:45;100734.28;;;20.55;45.03
46710;BME280;32442;51.514;-0.178;2023-03-29T10:24:23;100732.59;;;20.54;45.65
46710;BME280;32442;51.514;-0.178;2023-03-29T10:27:06;100745.00;;;20.53;46.15
46710;BME280;32442;51.514;-0.178;2023-03-29T10:29:57;100738.56;;;20.53;46.39
46710;BME280;32442;51.514;-0.178;2023-03-29T10:32:40;100743.34;;;20.52;46.35
46710;BME280;32442;51.514;-0.178;2023-03-29T10:35:19;100739.50;;;20.48;46.50
46710;BME280;32442;51.514;-0.178;2023-03-29T10:37:55;100732.00;;;20.44;47.10
46710;BME280;32442;51.514;-0.178;2023-03-29T10:40:46;100724.44;;;20.44;47.05
46710;BME280;32442;51.514;-0.178;2023-03-29T10:43:21;100727.09;;;20.35;46.90
46710;BME280;32442;51.514;-0.178;2023-03-29T10:45:51;100731.09;;;20.34;47.65
46710;BME280;32442;51.514;-0.178;2023-03-29T10:48:23;100726.59;;;20.33;47.20
46710;BME280;32442;51.514;-0.178;2023-03-29T10:50:50;100721.84;;;20.34;47.95
46710;BME280;32442;51.514;-0.178;2023-03-29T10:53:29;100728.16;;;20.26;48.41
46710;BME280;32442;51.514;-0.178;2023-03-29T10:56:29;100712.25;;;20.21;48.71
46710;BME280;32442;51.514;-0.178;2023-03-29T10:59:27;100709.22;;;20.18;48.55
46710;BME280;32442;51.514;-0.178;2023-03-29T11:02:24;100699.16;;;20.17;48.89
46710;BME280;32442;51.514;-0.178;2023-03-29T11:04:48;100693.84;;;20.15;48.11
46710;BME280;32442;51.514;-0.178;2023-03-29T11:09:58;100693.84;;;20.15;47.99
46710;BME280;32442;51.514;-0.178;2023-03-29T11:12:30;100685.94;;;20.17;48.70
46710;BME280;32442;51.514;-0.178;2023-03-29T11:15:19;100690.09;;;20.20;48.39
46710;BME280;32442;51.514;-0.178;2023-03-29T11:23:13;100660.94;;;20.34;48.13
46710;BME280;32442;51.514;-0.178;2023-03-29T11:28:23;100668.31;;;20.44;48.28
46710;BME280;32442;51.514;-0.178;2023-03-29T11:35:52;100670.75;;;20.59;47.73
46710;BME280;32442;51.514;-0.178;2023-03-29T11:38:23;100664.19;;;20.64;47.96
46710;BME280;32442;51.514;-0.178;2023-03-29T11:43:33;100639.31;;;20.71;47.64
46710;BME280;32442;51.514;-0.178;2023-03-29T11:48:33;100641.69;;;20.77;47.75
46710;BME280;32442;51.514;-0.178;2023-03-29T11:51:08;100646.66;;;20.80;47.87
46710;BME280;32442;51.514;-0.178;2023-03-29T11:53:43;100647.19;;;20.82;47.98
46710;BME280;32442;51.514;-0.178;2023-03-29T11:56:12;100641.56;;;20.82;48.14
46710;BME280;32442;51.514;-0.178;2023-03-29T11:58:42;100629.69;;;20.85;48.55
46710;BME280;32442;51.514;-0.178;2023-03-29T12:01:17;100638.09;;;20.85;48.97
46710;BME280;32442;51.514;-0.178;2023-03-29T12:04:09;100642.88;;;20.85;49.14
46710;BME280;32442;51.514;-0.178;2023-03-29T12:12:02;100625.91;;;20.90;49.29
46710;BME280;32442;51.514;-0.178;2023-03-29T12:17:04;100633.06;;;20.96;49.27
46710;BME280;32442;51.514;-0.178;2023-03-29T12:19:35;100639.22;;;20.98;48.92
46710;BME280;32442;51.514;-0.178;2023-03-29T12:22:09;100646.16;;;21.01;48.61
46710;BME280;32442;51.514;-0.178;2023-03-29T12:24:42;100643.03;;;21.02;48.61
46710;BME280;32442;51.514;-0.178;2023-03-29T12:27:55;100641.56;;;21.05;48.30
46710;BME280;32442;51.514;-0.178;2023-03-29T12:38:03;100640.28;;;21.11;47.48
46710;BME280;32442;51.514;-0.178;2023-03-29T12:40:43;100633.53;;;21.12;47.64
46710;BME280;32442;51.514;-0.178;2023-03-29T12:43:15;100623.97;;;21.13;47.46
46710;BME280;32442;51.514;-0.178;2023-03-29T12:45:45;100610.75;;;21.13;47.95
46710;BME280;32442;51.514;-0.178;2023-03-29T12:48:17;100587.13;;;21.14;47.26
46710;BME280;32442;51.514;-0.178;2023-03-29T12:50:57;100578.69;;;21.14;47.48
46710;BME280;32442;51.514;-0.178;2023-03-29T12:53:31;100566.63;;;21.14;46.92
46710;BME280;32442;51.514;-0.178;2023-03-29T13:01:26;100565.81;;;21.13;46.91
46710;BME280;32442;51.514;-0.178;2023-03-29T13:06:31;100580.16;;;21.12;46.90
46710;BME280;32442;51.514;-0.178;2023-03-29T13:09:03;100590.56;;;21.11;46.96
46710;BME280;32442;51.514;-0.178;2023-03-29T13:11:50;100578.50;;;21.11;46.99
46710;BME280;32442;51.514;-0.178;2023-03-29T13:14:18;100601.28;;;21.09;46.90
46710;BME280;32442;51.514;-0.178;2023-03-29T13:16:45;100597.97;;;21.07;47.05
46710;BME280;32442;51.514;-0.178;2023-03-29T13:19:19;100589.53;;;21.07;46.95
46710;BME280;32442;51.514;-0.178;2023-03-29T13:21:55;100585.38;;;21.05;46.85
46710;BME280;32442;51.514;-0.178;2023-03-29T13:24:32;100568.53;;;21.05;47.04
46710;BME280;32442;51.514;-0.178;2023-03-29T13:34:50;100561.06;;;21.00;46.95
46710;BME280;32442;51.514;-0.178;2023-03-29T13:39:50;100556.94;;;20.98;46.91
46710;BME280;32442;51.514;-0.178;2023-03-29T13:44:45;100535.44;;;20.93;46.59
46710;BME280;32442;51.514;-0.178;2023-03-29T13:47:26;100533.75;;;20.92;46.88
46710;BME280;32442;51.514;-0.178;2023-03-29T13:49:58;100529.28;;;20.91;46.51
46710;BME280;32442;51.514;-0.178;2023-03-29T13:52:27;100537.84;;;20.86;46.89
46710;BME280;32442;51.514;-0.178;2023-03-29T13:55:00;100524.63;;;20.86;46.56
46710;BME280;32442;51.514;-0.178;2023-03-29T13:57:37;100510.91;;;20.85;46.62
46710;BME280;32442;51.514;-0.178;2023-03-29T14:00:12;100518.00;;;20.82;46.92
46710;BME280;32442;51.514;-0.178;2023-03-29T14:02:47;100513.03;;;20.79;46.89
46710;BME280;32442;51.514;-0.178;2023-03-29T14:05:16;100526.25;;;20.79;47.04
46710;BME280;32442;51.514;-0.178;2023-03-29T14:07:53;100528.03;;;20.75;46.96
46710;BME280;32442;51.514;-0.178;2023-03-29T14:10:30;100526.06;;;20.75;46.69
46710;BME280;32442;51.514;-0.178;2023-03-29T14:12:58;100530.66;;;20.71;46.81
46710;BME280;32442;51.514;-0.178;2023-03-29T14:15:38;100531.28;;;20.68;47.09
46710;BME280;32442;51.514;-0.178;2023-03-29T14:18:10;100519.75;;;20.70;46.80
46710;BME280;32442;51.514;-0.178;2023-03-29T14:20:38;100514.78;;;20.67;46.94
46710;BME280;32442;51.514;-0.178;2023-03-29T14:23:09;100515.94;;;20.66;46.99
46710;BME280;32442;51.514;-0.178;2023-03-29T14:25:37;100513.94;;;20.66;46.75
46710;BME280;32442;51.514;-0.178;2023-03-29T14:28:26;100513.13;;;20.66;46.65